sensor_id;sensor_type;location;lat;lon;timestamp;P1;durP1;ratioP1;P2;durP2;ratioP2
11568;SDS011;5840;46.894;15.542;2022-07-04T00:01:22;5.67;;;5.27;;
11568;SDS011;5840;46.894;15.542;2022-07-04T00:03:49;5.53;;;5.17;;
11568;SDS011;5840;46.894;15.542;2022-07-04T00:06:16;5.73;;;5.33;;
11568;SDS011;5840;46.894;15.542;2022-07-04T00:08:44;6.23;;;5.73;;
11568;SDS011;5840;46.894;15.542;2022-07-04T00:11:11;5.53;;;5.10;;
11568;SDS011;5840;46.894;15.542;2022-07-04T00:13:38;5.50;;;5.20;;
11568;SDS011;5840;46.894;15.542;2022-07-04T00:16:05;6.33;;;5.83;;
11568;SDS011;5840;46.894;15.542;2022-07-04T00:18:32;6.40;;;5.53;;
11568;SDS011;5840;46.894;15.542;2022-07-04T00:20:59;5.50;;;5.20;;
11568;SDS011;5840;46.894;15.542;2022-07-04T00:23:26;5.57;;;5.23;;
11568;SDS011;5840;46.894;15.542;2022-07-04T00:25:54;5.63;;;5.23;;
11568;SDS011;5840;46.894;15.542;2022-07-04T00:28:21;5.77;;;5.37;;
11568;SDS011;5840;46.894;15.542;2022-07-04T00:30:48;5.70;;;5.20;;
11568;SDS011;5840;46.894;15.542;2022-07-04T00:33:15;5.73;;;5.33;;
11568;SDS011;5840;46.894;15.542;2022-07-04T00:35:42;5.97;;;5.57;;
11568;SDS011;5840;46.894;15.542;2022-07-04T00:38:09;6.10;;;5.70;;
11568;SDS011;5840;46.894;15.542;2022-07-04T00:40:36;6.40;;;5.90;;
11568;SDS011;5840;46.894;15.542;2022-07-04T00:43:05;5.83;;;5.43;;
11568;SDS011;5840;46.894;15.542;2022-07-04T00:45:32;6.03;;;5.60;;
11568;SDS011;5840;46.894;15.542;2022-07-04T00:47:59;5.93;;;5.53;;
11568;SDS011;5840;46.894;15.542;2022-07-04T00:50:26;6.40;;;6.00;;
11568;SDS011;5840;46.894;15.542;2022-07-04T00:52:53;6.13;;;5.53;;
11568;SDS011;5840;46.894;15.542;2022-07-04T00:55:21;6.13;;;5.73;;
11568;SDS011;5840;46.894;15.542;2022-07-04T00:57:49;6.00;;;5.50;;
11568;SDS011;5840;46.894;15.542;2022-07-04T01:00:18;7.27;;;6.67;;
11568;SDS011;5840;46.894;15.542;2022-07-04T01:02:45;7.30;;;6.70;;
11568;SDS011;5840;46.894;15.542;2022-07-04T01:05:13;6.80;;;6.30;;
11568;SDS011;5840;46.894;15.542;2022-07-04T01:07:40;6.40;;;5.90;;
11568;SDS011;5840;46.894;15.542;2022-07-04T01:10:09;6.50;;;6.00;;
11568;SDS011;5840;46.894;15.542;2022-07-04T01:12:36;6.73;;;6.23;;
11568;SDS011;5840;46.894;15.542;2022-07-04T01:15:04;6.00;;;5.60;;
11568;SDS011;5840;46.894;15.542;2022-07-04T01:17:33;7.00;;;6.50;;
11568;SDS011;5840;46.894;15.542;2022-07-04T01:20:01;7.43;;;6.83;;
11568;SDS011;5840;46.894;15.542;2022-07-04T01:22:29;6.60;;;6.13;;
11568;SDS011;5840;46.894;15.542;2022-07-04T01:24:56;6.83;;;6.33;;
11568;SDS011;5840;46.894;15.542;2022-07-04T01:27:23;6.93;;;6.43;;
11568;SDS011;5840;46.894;15.542;2022-07-04T01:29:50;7.43;;;6.73;;
11568;SDS011;5840;46.894;15.542;2022-07-04T01:32:17;7.27;;;6.67;;
11568;SDS011;5840;46.894;15.542;2022-07-04T01:34:44;6.63;;;6.13;;
11568;SDS011;5840;46.894;15.542;2022-07-04T01:37:11;6.63;;;6.23;;
11568;SDS011;5840;46.894;15.542;2022-07-04T01:39:39;6.73;;;6.33;;
11568;SDS011;5840;46.894;15.542;2022-07-04T01:42:06;6.73;;;6.23;;
11568;SDS011;5840;46.894;15.542;2022-07-04T01:44:33;7.07;;;6.47;;
11568;SDS011;5840;46.894;15.542;2022-07-04T01:47:01;7.17;;;6.67;;
11568;SDS011;5840;46.894;15.542;2022-07-04T01:49:28;6.77;;;6.30;;
11568;SDS011;5840;46.894;15.542;2022-07-04T01:51:55;6.87;;;6.37;;
11568;SDS011;5840;46.894;15.542;2022-07-04T01:54:22;6.80;;;6.30;;
11568;SDS011;5840;46.894;15.542;2022-07-04T01:56:52;7.10;;;6.57;;
11568;SDS011;5840;46.894;15.542;2022-07-04T01:59:19;6.97;;;6.47;;
11568;SDS011;5840;46.894;15.542;2022-07-04T02:02:07;6.87;;;6.47;;
11568;SDS011;5840;46.894;15.542;2022-07-04T02:04:33;7.37;;;6.93;;
11568;SDS011;5840;46.894;15.542;2022-07-04T02:07:00;6.60;;;6.10;;
11568;SDS011;5840;46.894;15.542;2022-07-04T02:09:27;7.03;;;6.50;;
11568;SDS011;5840;46.894;15.542;2022-07-04T02:11:57;7.00;;;6.53;;
11568;SDS011;5840;46.894;15.542;2022-07-04T02:14:42;6.37;;;5.87;;
11568;SDS011;5840;46.894;15.542;2022-07-04T02:17:09;6.70;;;6.20;;
11568;SDS011;5840;46.894;15.542;2022-07-04T02:19:36;5.87;;;5.57;;
11568;SDS011;5840;46.894;15.542;2022-07-04T02:22:03;6.90;;;6.30;;
11568;SDS011;5840;46.894;15.542;2022-07-04T02:24:31;6.60;;;6.10;;
11568;SDS011;5840;46.894;15.542;2022-07-04T02:26:59;7.07;;;6.53;;
11568;SDS011;5840;46.894;15.542;2022-07-04T02:29:26;6.87;;;6.40;;
11568;SDS011;5840;46.894;15.542;2022-07-04T02:31:53;6.70;;;6.20;;
11568;SDS011;5840;46.894;15.542;2022-07-04T02:34:20;7.63;;;7.13;;
11568;SDS011;5840;46.894;15.542;2022-07-04T02:36:47;7.43;;;6.93;;
11568;SDS011;5840;46.894;15.542;2022-07-04T02:39:14;6.47;;;6.07;;
11568;SDS011;5840;46.894;15.542;2022-07-04T02:41:41;7.17;;;6.73;;
11568;SDS011;5840;46.894;15.542;2022-07-04T02:44:09;7.40;;;6.90;;
11568;SDS011;5840;46.894;15.542;2022-07-04T02:46:36;6.37;;;5.97;;
11568;SDS011;5840;46.894;15.542;2022-07-04T02:49:03;7.20;;;6.70;;
11568;SDS011;5840;46.894;15.542;2022-07-04T02:51:30;7.77;;;7.07;;
11568;SDS011;5840;46.894;15.542;2022-07-04T02:53:58;7.97;;;7.33;;
11568;SDS011;5840;46.894;15.542;2022-07-04T02:56:25;7.30;;;6.70;;
11568;SDS011;5840;46.894;15.542;2022-07-04T02:58:52;7.47;;;6.97;;
11568;SDS011;5840;46.894;15.542;2022-07-04T03:01:20;7.60;;;7.10;;
11568;SDS011;5840;46.894;15.542;2022-07-04T03:03:47;6.87;;;6.33;;
11568;SDS011;5840;46.894;15.542;2022-07-04T03:06:14;7.27;;;6.77;;
11568;SDS011;5840;46.894;15.542;2022-07-04T03:08:41;7.77;;;7.27;;
11568;SDS011;5840;46.894;15.542;2022-07-04T03:11:08;7.07;;;6.57;;
11568;SDS011;5840;46.894;15.542;2022-07-04T03:13:36;7.63;;;7.07;;
11568;SDS011;5840;46.894;15.542;2022-07-04T03:16:03;7.33;;;6.83;;
11568;SDS011;5840;46.894;15.542;2022-07-04T03:18:32;7.37;;;6.80;;
11568;SDS011;5840;46.894;15.542;2022-07-04T03:21:00;7.07;;;6.57;;
11568;SDS011;5840;46.894;15.542;2022-07-04T03:23:29;6.73;;;6.23;;
11568;SDS011;5840;46.894;15.542;2022-07-04T03:25:56;6.83;;;6.43;;
11568;SDS011;5840;46.894;15.542;2022-07-04T03:28:23;7.90;;;7.30;;
11568;SDS011;5840;46.894;15.542;2022-07-04T03:30:50;7.33;;;6.70;;
11568;SDS011;5840;46.894;15.542;2022-07-04T03:33:17;7.73;;;7.23;;
11568;SDS011;5840;46.894;15.542;2022-07-04T03:35:45;7.03;;;6.43;;
11568;SDS011;5840;46.894;15.542;2022-07-04T03:38:12;6.17;;;5.80;;
11568;SDS011;5840;46.894;15.542;2022-07-04T03:40:39;7.70;;;7.00;;
11568;SDS011;5840;46.894;15.542;2022-07-04T03:43:06;6.73;;;6.33;;
11568;SDS011;5840;46.894;15.542;2022-07-04T03:45:33;7.70;;;7.10;;
11568;SDS011;5840;46.894;15.542;2022-07-04T03:48:00;6.80;;;6.30;;
11568;SDS011;5840;46.894;15.542;2022-07-04T03:50:28;7.97;;;7.27;;
11568;SDS011;5840;46.894;15.542;2022-07-04T03:52:57;6.73;;;6.23;;
11568;SDS011;5840;46.894;15.542;2022-07-04T03:55:24;7.30;;;6.80;;
11568;SDS011;5840;46.894;15.542;2022-07-04T03:57:51;7.73;;;7.13;;
11568;SDS011;5840;46.894;15.542;2022-07-04T04:00:18;7.10;;;6.60;;
11568;SDS011;5840;46.894;15.542;2022-07-04T04:02:45;6.97;;;6.47;;
11568;SDS011;5840;46.894;15.542;2022-07-04T04:05:12;7.93;;;7.13;;
11568;SDS011;5840;46.894;15.542;2022-07-04T04:07:57;7.33;;;6.83;;
11568;SDS011;5840;46.894;15.542;2022-07-04T04:10:25;6.97;;;6.53;;
11568;SDS011;5840;46.894;15.542;2022-07-04T04:12:53;7.27;;;6.77;;
11568;SDS011;5840;46.894;15.542;2022-07-04T04:15:20;7.37;;;6.87;;
11568;SDS011;5840;46.894;15.542;2022-07-04T04:17:47;7.00;;;6.50;;
11568;SDS011;5840;46.894;15.542;2022-07-04T04:20:14;6.53;;;6.13;;
11568;SDS011;5840;46.894;15.542;2022-07-04T04:22:41;6.57;;;6.10;;
11568;SDS011;5840;46.894;15.542;2022-07-04T04:25:10;6.83;;;6.33;;
11568;SDS011;5840;46.894;15.542;2022-07-04T04:27:37;6.43;;;6.03;;
11568;SDS011;5840;46.894;15.542;2022-07-04T04:30:04;7.10;;;6.60;;
11568;SDS011;5840;46.894;15.542;2022-07-04T04:32:32;6.47;;;5.97;;
11568;SDS011;5840;46.894;15.542;2022-07-04T04:34:59;7.30;;;6.63;;
11568;SDS011;5840;46.894;15.542;2022-07-04T04:37:25;6.40;;;6.00;;
11568;SDS011;5840;46.894;15.542;2022-07-04T04:39:52;6.47;;;6.07;;
11568;SDS011;5840;46.894;15.542;2022-07-04T04:42:21;7.33;;;6.80;;
11568;SDS011;5840;46.894;15.542;2022-07-04T04:44:48;6.73;;;6.33;;
11568;SDS011;5840;46.894;15.542;2022-07-04T04:47:15;7.47;;;6.87;;
11568;SDS011;5840;46.894;15.542;2022-07-04T04:49:42;7.10;;;6.60;;
11568;SDS011;5840;46.894;15.542;2022-07-04T04:52:08;6.83;;;6.43;;
11568;SDS011;5840;46.894;15.542;2022-07-04T04:54:36;8.00;;;7.43;;
11568;SDS011;5840;46.894;15.542;2022-07-04T04:57:04;7.13;;;6.63;;
11568;SDS011;5840;46.894;15.542;2022-07-04T04:59:32;7.37;;;6.90;;
11568;SDS011;5840;46.894;15.542;2022-07-04T05:02:00;6.90;;;6.50;;
11568;SDS011;5840;46.894;15.542;2022-07-04T05:04:27;7.23;;;6.83;;
11568;SDS011;5840;46.894;15.542;2022-07-04T05:06:54;7.00;;;6.50;;
11568;SDS011;5840;46.894;15.542;2022-07-04T05:09:21;7.23;;;6.70;;
11568;SDS011;5840;46.894;15.542;2022-07-04T05:11:49;7.17;;;6.60;;
11568;SDS011;5840;46.894;15.542;2022-07-04T05:14:16;7.40;;;6.90;;
11568;SDS011;5840;46.894;15.542;2022-07-04T05:16:44;7.40;;;6.70;;
11568;SDS011;5840;46.894;15.542;2022-07-04T05:19:11;7.30;;;6.80;;
11568;SDS011;5840;46.894;15.542;2022-07-04T05:21:38;7.10;;;6.60;;
11568;SDS011;5840;46.894;15.542;2022-07-04T05:24:05;6.73;;;6.23;;
11568;SDS011;5840;46.894;15.542;2022-07-04T05:26:32;7.47;;;6.97;;
11568;SDS011;5840;46.894;15.542;2022-07-04T05:28:59;6.63;;;6.23;;
11568;SDS011;5840;46.894;15.542;2022-07-04T05:31:26;6.60;;;6.10;;
11568;SDS011;5840;46.894;15.542;2022-07-04T05:33:54;7.33;;;6.63;;
11568;SDS011;5840;46.894;15.542;2022-07-04T05:36:22;7.07;;;6.57;;
11568;SDS011;5840;46.894;15.542;2022-07-04T05:38:49;7.93;;;7.33;;
11568;SDS011;5840;46.894;15.542;2022-07-04T05:41:16;8.10;;;7.53;;
11568;SDS011;5840;46.894;15.542;2022-07-04T05:43:43;8.13;;;7.53;;
11568;SDS011;5840;46.894;15.542;2022-07-04T05:46:10;8.87;;;8.00;;
11568;SDS011;5840;46.894;15.542;2022-07-04T05:48:37;12.83;;;8.53;;
11568;SDS011;5840;46.894;15.542;2022-07-04T05:51:06;7.47;;;6.83;;
11568;SDS011;5840;46.894;15.542;2022-07-04T05:53:33;7.10;;;6.57;;
11568;SDS011;5840;46.894;15.542;2022-07-04T05:56:00;8.77;;;8.17;;
11568;SDS011;5840;46.894;15.542;2022-07-04T05:58:27;8.67;;;7.97;;
11568;SDS011;5840;46.894;15.542;2022-07-04T06:00:53;8.47;;;7.80;;
11568;SDS011;5840;46.894;15.542;2022-07-04T06:03:20;8.90;;;7.83;;
11568;SDS011;5840;46.894;15.542;2022-07-04T06:05:48;8.13;;;7.57;;
11568;SDS011;5840;46.894;15.542;2022-07-04T06:08:16;7.53;;;6.87;;
11568;SDS011;5840;46.894;15.542;2022-07-04T06:10:45;8.73;;;7.87;;
11568;SDS011;5840;46.894;15.542;2022-07-04T06:13:12;8.17;;;7.53;;
11568;SDS011;5840;46.894;15.542;2022-07-04T06:15:39;8.03;;;7.40;;
11568;SDS011;5840;46.894;15.542;2022-07-04T06:18:06;7.77;;;7.10;;
11568;SDS011;5840;46.894;15.542;2022-07-04T06:20:33;8.63;;;7.40;;
11568;SDS011;5840;46.894;15.542;2022-07-04T06:23:00;7.97;;;7.37;;
11568;SDS011;5840;46.894;15.542;2022-07-04T06:25:30;8.13;;;7.43;;
11568;SDS011;5840;46.894;15.542;2022-07-04T06:27:57;7.60;;;6.90;;
11568;SDS011;5840;46.894;15.542;2022-07-04T06:30:24;8.27;;;7.60;;
11568;SDS011;5840;46.894;15.542;2022-07-04T06:32:52;7.33;;;6.83;;
11568;SDS011;5840;46.894;15.542;2022-07-04T06:35:21;7.90;;;7.20;;
11568;SDS011;5840;46.894;15.542;2022-07-04T06:38:06;7.47;;;6.87;;
11568;SDS011;5840;46.894;15.542;2022-07-04T06:40:35;7.13;;;6.57;;
11568;SDS011;5840;46.894;15.542;2022-07-04T06:43:03;7.40;;;6.90;;
11568;SDS011;5840;46.894;15.542;2022-07-04T06:45:30;8.17;;;7.43;;
11568;SDS011;5840;46.894;15.542;2022-07-04T06:47:58;8.60;;;7.70;;
11568;SDS011;5840;46.894;15.542;2022-07-04T06:50:25;8.60;;;7.80;;
11568;SDS011;5840;46.894;15.542;2022-07-04T06:52:52;8.10;;;7.40;;
11568;SDS011;5840;46.894;15.542;2022-07-04T06:55:19;9.47;;;8.47;;
11568;SDS011;5840;46.894;15.542;2022-07-04T06:57:48;7.57;;;6.97;;
11568;SDS011;5840;46.894;15.542;2022-07-04T07:00:15;7.70;;;6.90;;
11568;SDS011;5840;46.894;15.542;2022-07-04T07:02:42;7.30;;;6.70;;
11568;SDS011;5840;46.894;15.542;2022-07-04T07:05:09;7.60;;;6.90;;
11568;SDS011;5840;46.894;15.542;2022-07-04T07:07:36;7.10;;;6.50;;
11568;SDS011;5840;46.894;15.542;2022-07-04T07:10:03;7.03;;;6.43;;
11568;SDS011;5840;46.894;15.542;2022-07-04T07:12:31;6.87;;;6.27;;
11568;SDS011;5840;46.894;15.542;2022-07-04T07:15:00;7.40;;;6.70;;
11568;SDS011;5840;46.894;15.542;2022-07-04T07:17:28;6.90;;;6.33;;
11568;SDS011;5840;46.894;15.542;2022-07-04T07:19:55;7.07;;;6.47;;
11568;SDS011;5840;46.894;15.542;2022-07-04T07:22:22;6.47;;;5.87;;
11568;SDS011;5840;46.894;15.542;2022-07-04T07:24:49;6.90;;;6.30;;
11568;SDS011;5840;46.894;15.542;2022-07-04T07:27:16;6.93;;;6.33;;
11568;SDS011;5840;46.894;15.542;2022-07-04T07:29:43;6.43;;;5.80;;
11568;SDS011;5840;46.894;15.542;2022-07-04T07:32:12;6.07;;;5.67;;
11568;SDS011;5840;46.894;15.542;2022-07-04T07:34:39;6.97;;;6.50;;
11568;SDS011;5840;46.894;15.542;2022-07-04T07:37:06;6.53;;;6.07;;
11568;SDS011;5840;46.894;15.542;2022-07-04T07:39:33;6.60;;;6.10;;
11568;SDS011;5840;46.894;15.542;2022-07-04T07:42:00;6.53;;;6.03;;
11568;SDS011;5840;46.894;15.542;2022-07-04T07:44:28;7.30;;;6.60;;
11568;SDS011;5840;46.894;15.542;2022-07-04T07:46:55;6.67;;;6.17;;
11568;SDS011;5840;46.894;15.542;2022-07-04T07:49:23;7.37;;;6.63;;
11568;SDS011;5840;46.894;15.542;2022-07-04T07:51:50;7.00;;;6.40;;
11568;SDS011;5840;46.894;15.542;2022-07-04T07:54:17;7.23;;;6.53;;
11568;SDS011;5840;46.894;15.542;2022-07-04T07:56:44;7.10;;;6.60;;
11568;SDS011;5840;46.894;15.542;2022-07-04T07:59:11;7.10;;;6.40;;
11568;SDS011;5840;46.894;15.542;2022-07-04T08:01:38;7.30;;;6.67;;
11568;SDS011;5840;46.894;15.542;2022-07-04T08:04:05;6.67;;;6.07;;
11568;SDS011;5840;46.894;15.542;2022-07-04T08:06:51;6.80;;;6.30;;
11568;SDS011;5840;46.894;15.542;2022-07-04T08:09:18;6.30;;;5.70;;
11568;SDS011;5840;46.894;15.542;2022-07-04T08:11:45;6.97;;;6.37;;
11568;SDS011;5840;46.894;15.542;2022-07-04T08:14:12;7.03;;;6.40;;
11568;SDS011;5840;46.894;15.542;2022-07-04T08:16:39;6.57;;;5.97;;
11568;SDS011;5840;46.894;15.542;2022-07-04T08:19:06;6.30;;;5.83;;
11568;SDS011;5840;46.894;15.542;2022-07-04T08:21:33;6.30;;;5.90;;
11568;SDS011;5840;46.894;15.542;2022-07-04T08:24:02;5.57;;;5.17;;
11568;SDS011;5840;46.894;15.542;2022-07-04T08:26:29;5.57;;;5.07;;
11568;SDS011;5840;46.894;15.542;2022-07-04T08:28:56;5.80;;;5.20;;
11568;SDS011;5840;46.894;15.542;2022-07-04T08:31:24;5.43;;;5.03;;
11568;SDS011;5840;46.894;15.542;2022-07-04T08:33:53;6.10;;;5.50;;
11568;SDS011;5840;46.894;15.542;2022-07-04T08:36:20;6.53;;;5.80;;
11568;SDS011;5840;46.894;15.542;2022-07-04T08:38:46;6.23;;;5.73;;
11568;SDS011;5840;46.894;15.542;2022-07-04T08:41:16;5.77;;;5.37;;
11568;SDS011;5840;46.894;15.542;2022-07-04T08:43:44;5.80;;;5.27;;
11568;SDS011;5840;46.894;15.542;2022-07-04T08:46:14;6.17;;;5.77;;
11568;SDS011;5840;46.894;15.542;2022-07-04T08:48:43;5.93;;;5.33;;
11568;SDS011;5840;46.894;15.542;2022-07-04T08:51:19;6.40;;;6.00;;
11568;SDS011;5840;46.894;15.542;2022-07-04T08:53:52;6.37;;;5.70;;
11568;SDS011;5840;46.894;15.542;2022-07-04T08:56:24;7.57;;;5.73;;
11568;SDS011;5840;46.894;15.542;2022-07-04T08:59:09;6.27;;;5.73;;
11568;SDS011;5840;46.894;15.542;2022-07-04T09:01:36;6.30;;;5.40;;
11568;SDS011;5840;46.894;15.542;2022-07-04T09:04:06;6.13;;;5.53;;
11568;SDS011;5840;46.894;15.542;2022-07-04T09:06:34;5.93;;;5.33;;
11568;SDS011;5840;46.894;15.542;2022-07-04T09:09:01;5.80;;;5.17;;
11568;SDS011;5840;46.894;15.542;2022-07-04T09:11:29;6.07;;;5.57;;
11568;SDS011;5840;46.894;15.542;2022-07-04T09:13:56;6.23;;;5.73;;
11568;SDS011;5840;46.894;15.542;2022-07-04T09:16:24;8.00;;;5.93;;
11568;SDS011;5840;46.894;15.542;2022-07-04T09:18:51;5.73;;;5.33;;
11568;SDS011;5840;46.894;15.542;2022-07-04T09:21:19;6.47;;;5.97;;
11568;SDS011;5840;46.894;15.542;2022-07-04T09:23:49;6.53;;;5.70;;
11568;SDS011;5840;46.894;15.542;2022-07-04T09:26:16;6.13;;;5.53;;
11568;SDS011;5840;46.894;15.542;2022-07-04T09:28:50;7.50;;;5.67;;
11568;SDS011;5840;46.894;15.542;2022-07-04T09:31:18;5.60;;;5.17;;
11568;SDS011;5840;46.894;15.542;2022-07-04T09:33:50;6.03;;;5.60;;
11568;SDS011;5840;46.894;15.542;2022-07-04T09:36:19;6.40;;;5.90;;
11568;SDS011;5840;46.894;15.542;2022-07-04T09:41:50;6.87;;;6.37;;
11568;SDS011;5840;46.894;15.542;2022-07-04T09:44:22;7.43;;;6.73;;
11568;SDS011;5840;46.894;15.542;2022-07-04T09:46:50;7.03;;;6.43;;
11568;SDS011;5840;46.894;15.542;2022-07-04T09:49:18;6.43;;;5.90;;
11568;SDS011;5840;46.894;15.542;2022-07-04T09:51:46;7.10;;;6.50;;
11568;SDS011;5840;46.894;15.542;2022-07-04T09:54:15;7.17;;;6.50;;
11568;SDS011;5840;46.894;15.542;2022-07-04T09:56:44;6.70;;;6.20;;
11568;SDS011;5840;46.894;15.542;2022-07-04T09:59:13;7.80;;;7.10;;
11568;SDS011;5840;46.894;15.542;2022-07-04T10:01:42;7.27;;;6.50;;
11568;SDS011;5840;46.894;15.542;2022-07-04T10:04:09;8.57;;;6.90;;
11568;SDS011;5840;46.894;15.542;2022-07-04T10:06:38;7.43;;;6.93;;
11568;SDS011;5840;46.894;15.542;2022-07-04T10:09:07;9.03;;;7.40;;
11568;SDS011;5840;46.894;15.542;2022-07-04T10:11:36;7.23;;;6.63;;
11568;SDS011;5840;46.894;15.542;2022-07-04T10:14:04;7.83;;;7.03;;
11568;SDS011;5840;46.894;15.542;2022-07-04T10:16:32;8.03;;;7.33;;
11568;SDS011;5840;46.894;15.542;2022-07-04T10:19:01;7.70;;;7.10;;
11568;SDS011;5840;46.894;15.542;2022-07-04T10:21:29;8.07;;;7.27;;
11568;SDS011;5840;46.894;15.542;2022-07-04T10:23:57;7.77;;;7.17;;
11568;SDS011;5840;46.894;15.542;2022-07-04T10:26:24;7.63;;;7.03;;
11568;SDS011;5840;46.894;15.542;2022-07-04T10:28:51;8.03;;;7.33;;
11568;SDS011;5840;46.894;15.542;2022-07-04T10:31:18;7.70;;;7.03;;
11568;SDS011;5840;46.894;15.542;2022-07-04T10:33:46;8.27;;;7.47;;
11568;SDS011;5840;46.894;15.542;2022-07-04T10:36:16;6.97;;;6.37;;
11568;SDS011;5840;46.894;15.542;2022-07-04T10:38:48;6.90;;;6.30;;
11568;SDS011;5840;46.894;15.542;2022-07-04T10:41:16;7.20;;;6.00;;
11568;SDS011;5840;46.894;15.542;2022-07-04T10:43:55;6.93;;;6.43;;
11568;SDS011;5840;46.894;15.542;2022-07-04T10:46:26;7.20;;;6.60;;
11568;SDS011;5840;46.894;15.542;2022-07-04T10:48:55;6.30;;;6.00;;
11568;SDS011;5840;46.894;15.542;2022-07-04T10:54:18;6.83;;;6.33;;
11568;SDS011;5840;46.894;15.542;2022-07-04T10:56:50;6.93;;;6.43;;
11568;SDS011;5840;46.894;15.542;2022-07-04T10:59:20;6.90;;;6.40;;
11568;SDS011;5840;46.894;15.542;2022-07-04T11:01:51;6.80;;;6.30;;
11568;SDS011;5840;46.894;15.542;2022-07-04T11:10:31;6.40;;;6.00;;
11568;SDS011;5840;46.894;15.542;2022-07-04T11:16:00;6.60;;;6.17;;
11568;SDS011;5840;46.894;15.542;2022-07-04T11:18:29;6.93;;;6.33;;
11568;SDS011;5840;46.894;15.542;2022-07-04T11:20:56;6.57;;;5.97;;
11568;SDS011;5840;46.894;15.542;2022-07-04T11:23:24;6.33;;;5.87;;
11568;SDS011;5840;46.894;15.542;2022-07-04T11:25:51;6.83;;;6.40;;
11568;SDS011;5840;46.894;15.542;2022-07-04T11:28:21;7.47;;;6.87;;
11568;SDS011;5840;46.894;15.542;2022-07-04T11:30:49;6.67;;;6.20;;
11568;SDS011;5840;46.894;15.542;2022-07-04T11:33:17;5.63;;;5.33;;
11568;SDS011;5840;46.894;15.542;2022-07-04T11:36:00;6.33;;;5.37;;
11568;SDS011;5840;46.894;15.542;2022-07-04T11:41:12;5.87;;;5.47;;
11568;SDS011;5840;46.894;15.542;2022-07-04T11:43:57;5.53;;;5.13;;
11568;SDS011;5840;46.894;15.542;2022-07-04T11:46:41;4.83;;;4.53;;
11568;SDS011;5840;46.894;15.542;2022-07-04T11:49:08;4.93;;;4.57;;
11568;SDS011;5840;46.894;15.542;2022-07-04T11:51:40;5.00;;;4.50;;
11568;SDS011;5840;46.894;15.542;2022-07-04T11:54:09;5.00;;;4.60;;
11568;SDS011;5840;46.894;15.542;2022-07-04T11:56:36;4.93;;;4.40;;
11568;SDS011;5840;46.894;15.542;2022-07-04T11:59:12;4.80;;;4.50;;
11568;SDS011;5840;46.894;15.542;2022-07-04T12:01:41;4.87;;;4.47;;
11568;SDS011;5840;46.894;15.542;2022-07-04T12:04:15;4.97;;;4.57;;
11568;SDS011;5840;46.894;15.542;2022-07-04T12:06:43;4.83;;;4.53;;
11568;SDS011;5840;46.894;15.542;2022-07-04T12:09:13;4.97;;;4.57;;
11568;SDS011;5840;46.894;15.542;2022-07-04T12:11:55;4.70;;;4.40;;
11568;SDS011;5840;46.894;15.542;2022-07-04T12:14:23;5.10;;;4.70;;
11568;SDS011;5840;46.894;15.542;2022-07-04T12:19:53;4.90;;;4.60;;
11568;SDS011;5840;46.894;15.542;2022-07-04T12:22:24;5.37;;;4.97;;
11568;SDS011;5840;46.894;15.542;2022-07-04T12:24:57;4.70;;;4.40;;
11568;SDS011;5840;46.894;15.542;2022-07-04T12:27:25;5.20;;;4.70;;
11568;SDS011;5840;46.894;15.542;2022-07-04T12:29:54;5.10;;;4.70;;
11568;SDS011;5840;46.894;15.542;2022-07-04T12:32:21;5.17;;;4.80;;
11568;SDS011;5840;46.894;15.542;2022-07-04T12:34:48;4.80;;;4.50;;
11568;SDS011;5840;46.894;15.542;2022-07-04T12:37:15;5.00;;;4.60;;
11568;SDS011;5840;46.894;15.542;2022-07-04T12:39:43;4.80;;;4.40;;
11568;SDS011;5840;46.894;15.542;2022-07-04T12:42:13;5.00;;;4.50;;
11568;SDS011;5840;46.894;15.542;2022-07-04T12:44:42;4.77;;;4.47;;
11568;SDS011;5840;46.894;15.542;2022-07-04T12:47:10;4.80;;;4.40;;
11568;SDS011;5840;46.894;15.542;2022-07-04T12:49:42;5.13;;;4.60;;
11568;SDS011;5840;46.894;15.542;2022-07-04T12:52:12;4.60;;;4.23;;
11568;SDS011;5840;46.894;15.542;2022-07-04T12:54:40;4.60;;;4.30;;
11568;SDS011;5840;46.894;15.542;2022-07-04T12:57:11;4.10;;;3.80;;
11568;SDS011;5840;46.894;15.542;2022-07-04T12:59:41;4.50;;;4.10;;
11568;SDS011;5840;46.894;15.542;2022-07-04T13:02:08;4.90;;;4.60;;
11568;SDS011;5840;46.894;15.542;2022-07-04T13:04:37;4.22;;;4.03;;
11568;SDS011;5840;46.894;15.542;2022-07-04T13:07:14;4.47;;;4.17;;
11568;SDS011;5840;46.894;15.542;2022-07-04T13:09:41;4.77;;;4.43;;
11568;SDS011;5840;46.894;15.542;2022-07-04T13:12:09;4.60;;;4.30;;
11568;SDS011;5840;46.894;15.542;2022-07-04T13:14:53;4.43;;;4.17;;
11568;SDS011;5840;46.894;15.542;2022-07-04T13:17:21;4.87;;;4.53;;
11568;SDS011;5840;46.894;15.542;2022-07-04T13:19:49;4.40;;;4.20;;
11568;SDS011;5840;46.894;15.542;2022-07-04T13:22:18;4.80;;;4.23;;
11568;SDS011;5840;46.894;15.542;2022-07-04T13:24:45;4.63;;;4.37;;
11568;SDS011;5840;46.894;15.542;2022-07-04T13:27:12;4.10;;;3.80;;
11568;SDS011;5840;46.894;15.542;2022-07-04T13:29:39;4.70;;;4.40;;
11568;SDS011;5840;46.894;15.542;2022-07-04T13:32:07;4.50;;;4.10;;
11568;SDS011;5840;46.894;15.542;2022-07-04T13:34:34;4.43;;;4.00;;
11568;SDS011;5840;46.894;15.542;2022-07-04T13:37:02;4.43;;;4.13;;
11568;SDS011;5840;46.894;15.542;2022-07-04T13:39:29;4.27;;;4.07;;
11568;SDS011;5840;46.894;15.542;2022-07-04T13:41:56;4.77;;;4.37;;
11568;SDS011;5840;46.894;15.542;2022-07-04T13:44:23;4.90;;;4.47;;
11568;SDS011;5840;46.894;15.542;2022-07-04T13:46:50;4.67;;;4.27;;
11568;SDS011;5840;46.894;15.542;2022-07-04T13:49:18;4.70;;;4.30;;
11568;SDS011;5840;46.894;15.542;2022-07-04T13:51:45;4.53;;;4.30;;
11568;SDS011;5840;46.894;15.542;2022-07-04T13:54:12;4.50;;;4.30;;
11568;SDS011;5840;46.894;15.542;2022-07-04T13:56:39;4.53;;;4.13;;
11568;SDS011;5840;46.894;15.542;2022-07-04T13:59:07;4.57;;;4.37;;
11568;SDS011;5840;46.894;15.542;2022-07-04T14:01:34;4.70;;;4.40;;
11568;SDS011;5840;46.894;15.542;2022-07-04T14:04:01;4.70;;;4.40;;
11568;SDS011;5840;46.894;15.542;2022-07-04T14:06:29;4.83;;;4.43;;
11568;SDS011;5840;46.894;15.542;2022-07-04T14:08:57;4.43;;;4.13;;
11568;SDS011;5840;46.894;15.542;2022-07-04T14:11:24;4.43;;;4.03;;
11568;SDS011;5840;46.894;15.542;2022-07-04T14:13:51;4.60;;;4.30;;
11568;SDS011;5840;46.894;15.542;2022-07-04T14:16:18;4.60;;;4.40;;
11568;SDS011;5840;46.894;15.542;2022-07-04T14:18:45;4.43;;;4.13;;
11568;SDS011;5840;46.894;15.542;2022-07-04T14:21:11;4.60;;;4.27;;
11568;SDS011;5840;46.894;15.542;2022-07-04T14:23:40;4.83;;;4.57;;
11568;SDS011;5840;46.894;15.542;2022-07-04T14:26:07;4.87;;;4.47;;
11568;SDS011;5840;46.894;15.542;2022-07-04T14:28:35;5.30;;;4.90;;
11568;SDS011;5840;46.894;15.542;2022-07-04T14:31:02;4.57;;;4.17;;
11568;SDS011;5840;46.894;15.542;2022-07-04T14:33:29;5.00;;;4.60;;
11568;SDS011;5840;46.894;15.542;2022-07-04T14:35:58;4.77;;;4.37;;
11568;SDS011;5840;46.894;15.542;2022-07-04T14:38:26;4.70;;;4.40;;
11568;SDS011;5840;46.894;15.542;2022-07-04T14:40:54;4.77;;;4.47;;
11568;SDS011;5840;46.894;15.542;2022-07-04T14:43:21;5.07;;;4.67;;
11568;SDS011;5840;46.894;15.542;2022-07-04T14:45:48;4.70;;;4.40;;
11568;SDS011;5840;46.894;15.542;2022-07-04T14:48:15;4.53;;;4.13;;
11568;SDS011;5840;46.894;15.542;2022-07-04T14:50:42;4.87;;;4.50;;
11568;SDS011;5840;46.894;15.542;2022-07-04T14:53:09;4.60;;;4.30;;
11568;SDS011;5840;46.894;15.542;2022-07-04T14:55:36;4.50;;;4.20;;
11568;SDS011;5840;46.894;15.542;2022-07-04T14:58:04;4.80;;;4.40;;
11568;SDS011;5840;46.894;15.542;2022-07-04T15:00:31;4.83;;;4.53;;
11568;SDS011;5840;46.894;15.542;2022-07-04T15:02:58;4.53;;;4.17;;
11568;SDS011;5840;46.894;15.542;2022-07-04T15:05:25;4.90;;;4.60;;
11568;SDS011;5840;46.894;15.542;2022-07-04T15:07:51;4.77;;;4.40;;
11568;SDS011;5840;46.894;15.542;2022-07-04T15:10:20;5.20;;;4.73;;
11568;SDS011;5840;46.894;15.542;2022-07-04T15:12:48;4.30;;;4.00;;
11568;SDS011;5840;46.894;15.542;2022-07-04T15:15:16;4.90;;;4.50;;